Terminal Aerodrome Forecast
Issued by NWS

Home | Current Version | Previous Version | Text Only | Print | Product List | Glossary On
Versions: 1 2 3 4 5 6 7 8 9 10 11 12 13 14 15 16 17 18 19 20 21 22 23 24 25 26 27 28 29 30 31 32 33
921
FTUS41 KBOX 090312 AAA
TAFBED
TAF AMD
KBED 090312Z 0903/0924 01006KT 3SM -SHSN OVC030
     FM090600 35004KT P6SM BKN030
     FM090900 36005KT P6SM OVC030
     FM091300 36005KT P6SM OVC020
     FM091600 02005KT P6SM OVC015=

USA.gov is the U.S. government's official web portal to all federal, state and local government web resources and services.